createdAt,value
2022-09-29T00:01:06.967Z,0.88
2022-09-29T00:03:37.291Z,0.70
2022-09-29T00:06:04.491Z,0.80
2022-09-29T00:08:43.676Z,1.02
2022-09-29T00:11:14.896Z,1.00
2022-09-29T00:13:42.703Z,1.10
2022-09-29T00:16:10.679Z,1.02
2022-09-29T00:18:37.827Z,0.98
2022-09-29T00:21:10.074Z,1.17
2022-09-29T00:23:44.663Z,0.90
2022-09-29T00:26:15.813Z,1.45
2022-09-29T00:29:06.708Z,0.85
2022-09-29T00:31:46.979Z,0.90
2022-09-29T00:34:14.386Z,0.85
2022-09-29T00:36:42.008Z,1.05
2022-09-29T00:39:17.625Z,1.00
2022-09-29T00:41:45.104Z,1.00
2022-09-29T00:44:15.150Z,1.08
2022-09-29T00:46:42.732Z,1.05
2022-09-29T00:49:24.171Z,0.85
2022-09-29T00:52:26.564Z,0.98
2022-09-29T00:54:58.975Z,1.23
2022-09-29T00:57:31.004Z,1.23
2022-09-29T01:00:12.442Z,1.30
2022-09-29T01:02:44.758Z,1.35
2022-09-29T01:05:17.306Z,1.15
2022-09-29T01:07:44.760Z,1.30
2022-09-29T01:10:14.779Z,1.13
2022-09-29T01:12:42.390Z,1.05
2022-09-29T01:15:09.697Z,1.55
2022-09-29T01:17:36.476Z,1.60
2022-09-29T01:20:20.886Z,1.23
2022-09-29T01:22:59.225Z,1.20
2022-09-29T01:25:44.484Z,1.05
2022-09-29T01:28:29.875Z,1.60
2022-09-29T01:31:22.708Z,1.38
2022-09-29T01:33:55.406Z,1.40
2022-09-29T01:36:28.195Z,1.70
2022-09-29T01:39:18.852Z,1.70
2022-09-29T01:41:57.763Z,1.73
2022-09-29T01:44:29.545Z,1.70
2022-09-29T01:47:02.110Z,1.45
2022-09-29T01:49:33.921Z,1.77
2022-09-29T01:52:06.814Z,4.32
2022-09-29T01:57:29.114Z,1.90
2022-09-29T02:00:05.377Z,1.40
2022-09-29T02:02:44.755Z,2.17
2022-09-29T02:05:20.854Z,2.05
2022-09-29T02:07:48.778Z,2.05
2022-09-29T02:10:23.449Z,1.77
2022-09-29T02:12:54.130Z,2.00
2022-09-29T02:15:27.132Z,1.50
2022-09-29T02:20:22.736Z,1.60
2022-09-29T02:22:50.340Z,1.67
2022-09-29T02:25:19.505Z,1.88
2022-09-29T02:27:48.491Z,1.98
2022-09-29T02:30:15.419Z,1.70
2022-09-29T02:32:42.236Z,1.65
2022-09-29T02:35:13.868Z,1.75
2022-09-29T02:38:05.830Z,1.35
2022-09-29T02:40:56.816Z,1.55
2022-09-29T02:43:42.578Z,1.30
2022-09-29T02:46:38.935Z,1.80
2022-09-29T02:49:27.237Z,3.92
2022-09-29T02:51:59.984Z,1.85
2022-09-29T02:54:38.677Z,1.50
2022-09-29T02:57:18.060Z,1.55
2022-09-29T03:00:10.453Z,1.67
2022-09-29T03:02:39.349Z,6.22
2022-09-29T03:05:10.416Z,2.25
2022-09-29T03:07:38.934Z,1.58
2022-09-29T03:10:07.626Z,1.95
2022-09-29T03:12:35.150Z,1.48
2022-09-29T03:15:02.296Z,1.42
2022-09-29T03:17:29.187Z,1.63
2022-09-29T03:19:56.127Z,1.52
2022-09-29T03:22:22.926Z,1.50
2022-09-29T03:24:49.951Z,1.60
2022-09-29T03:27:17.366Z,1.55
2022-09-29T03:29:44.083Z,1.33
2022-09-29T03:32:10.941Z,1.42
2022-09-29T03:34:37.746Z,1.50
2022-09-29T03:37:04.655Z,1.38
2022-09-29T03:39:31.396Z,1.33
2022-09-29T03:41:58.146Z,1.13
2022-09-29T03:44:24.924Z,1.50
2022-09-29T03:46:51.681Z,1.23
2022-09-29T03:49:18.547Z,1.83
2022-09-29T03:51:45.437Z,1.30
2022-09-29T03:54:12.425Z,1.40
2022-09-29T03:56:39.417Z,1.30
2022-09-29T03:59:09.379Z,1.70
2022-09-29T04:01:38.399Z,1.73
2022-09-29T04:04:07.123Z,1.50
2022-09-29T04:06:34.177Z,1.17
2022-09-29T04:09:01.049Z,1.33
2022-09-29T04:11:28.647Z,1.58
2022-09-29T04:13:55.860Z,2.15
2022-09-29T04:16:22.646Z,1.60
2022-09-29T04:18:49.401Z,1.30
2022-09-29T04:21:17.000Z,1.50
2022-09-29T04:23:43.940Z,1.23
2022-09-29T04:26:11.066Z,1.58
2022-09-29T04:28:38.810Z,1.35
2022-09-29T04:31:06.333Z,1.65
2022-09-29T04:33:40.685Z,1.52
2022-09-29T04:36:07.743Z,1.30
2022-09-29T04:38:34.549Z,1.40
2022-09-29T04:41:01.507Z,1.25
2022-09-29T04:43:28.634Z,1.80
2022-09-29T04:46:05.872Z,1.40
2022-09-29T04:48:35.860Z,1.33
2022-09-29T04:51:04.400Z,1.10
2022-09-29T04:53:37.802Z,1.17
2022-09-29T04:56:08.878Z,1.10
2022-09-29T04:58:36.447Z,1.40
2022-09-29T05:01:13.898Z,1.30
2022-09-29T05:03:41.953Z,1.50
2022-09-29T05:06:10.306Z,0.95
2022-09-29T05:08:37.141Z,1.20
2022-09-29T05:11:06.680Z,1.27
2022-09-29T05:13:44.171Z,1.08
2022-09-29T05:16:11.054Z,1.55
2022-09-29T05:18:37.974Z,0.90
2022-09-29T05:23:53.451Z,0.93
2022-09-29T05:26:20.222Z,5.63
2022-09-29T05:28:48.383Z,1.30
2022-09-29T05:31:15.716Z,1.60
2022-09-29T05:33:42.556Z,1.00
2022-09-29T05:36:11.375Z,1.27
2022-09-29T05:38:38.783Z,1.10
2022-09-29T05:41:11.331Z,1.25
2022-09-29T05:43:45.161Z,1.25
2022-09-29T05:46:12.136Z,1.15
2022-09-29T05:48:38.991Z,1.00
2022-09-29T05:51:17.460Z,0.98
2022-09-29T05:53:47.543Z,1.10
2022-09-29T05:56:20.147Z,1.08
2022-09-29T05:58:47.417Z,1.10
2022-09-29T06:01:19.952Z,0.98
2022-09-29T06:03:47.545Z,0.80
2022-09-29T06:06:26.704Z,0.93
2022-09-29T06:08:53.751Z,1.05
2022-09-29T06:11:23.622Z,0.93
2022-09-29T06:13:52.759Z,0.90
2022-09-29T06:16:22.401Z,1.30
2022-09-29T06:18:50.205Z,1.10
2022-09-29T06:21:20.253Z,1.80
2022-09-29T06:23:47.717Z,3.60
2022-09-29T06:26:21.415Z,2.50
2022-09-29T06:28:50.377Z,1.10
2022-09-29T06:31:25.098Z,1.25
2022-09-29T06:33:52.495Z,0.88
2022-09-29T06:36:39.809Z,1.10
2022-09-29T06:39:09.027Z,1.30
2022-09-29T06:41:35.953Z,1.00
2022-09-29T06:44:03.388Z,1.23
2022-09-29T06:46:30.882Z,1.10
2022-09-29T06:48:57.663Z,1.30
2022-09-29T06:51:37.809Z,1.38
2022-09-29T06:54:14.185Z,1.40
2022-09-29T06:56:41.126Z,1.48
2022-09-29T06:59:09.042Z,1.20
2022-09-29T07:01:35.888Z,1.13
2022-09-29T07:04:02.937Z,1.08
2022-09-29T07:06:30.875Z,1.10
2022-09-29T07:08:59.139Z,1.30
2022-09-29T07:11:27.059Z,1.17
2022-09-29T07:13:55.429Z,1.50
2022-09-29T07:16:26.415Z,1.75
2022-09-29T07:18:53.751Z,1.85
2022-09-29T07:21:22.360Z,2.22
2022-09-29T07:23:50.079Z,2.50
2022-09-29T07:26:18.072Z,1.40
2022-09-29T07:28:46.486Z,1.58
2022-09-29T07:31:16.493Z,1.77
2022-09-29T07:33:47.999Z,1.90
2022-09-29T07:36:17.138Z,1.80
2022-09-29T07:38:47.525Z,1.30
2022-09-29T07:41:14.898Z,1.67
2022-09-29T07:43:41.755Z,1.52
2022-09-29T07:46:09.211Z,1.30
2022-09-29T07:48:37.372Z,1.58
2022-09-29T07:51:15.779Z,2.17
2022-09-29T07:53:46.633Z,2.17
2022-09-29T07:56:18.985Z,1.27
2022-09-29T07:58:50.478Z,1.95
2022-09-29T08:01:19.344Z,1.63
2022-09-29T08:03:51.812Z,1.83
2022-09-29T08:06:19.988Z,1.67
2022-09-29T08:09:01.530Z,1.95
2022-09-29T08:14:00.747Z,1.40
2022-09-29T08:16:27.653Z,2.55
2022-09-29T08:18:54.558Z,1.17
2022-09-29T08:21:21.497Z,1.27
2022-09-29T08:23:48.405Z,1.33
2022-09-29T08:26:18.187Z,1.60
2022-09-29T08:28:46.290Z,2.05
2022-09-29T08:31:14.648Z,1.65
2022-09-29T08:33:43.911Z,1.58
2022-09-29T08:36:16.648Z,2.35
2022-09-29T08:38:52.089Z,1.98
2022-09-29T08:41:36.855Z,2.13
2022-09-29T08:44:32.734Z,1.60
2022-09-29T08:47:46.512Z,2.28
2022-09-29T08:50:29.075Z,2.35
2022-09-29T08:53:02.896Z,1.77
2022-09-29T08:55:53.107Z,1.60
2022-09-29T08:58:21.099Z,1.40
2022-09-29T09:01:28.021Z,1.40
2022-09-29T09:04:03.934Z,2.35
2022-09-29T09:06:49.292Z,1.88
2022-09-29T09:09:29.642Z,1.52
2022-09-29T09:12:22.016Z,1.65
2022-09-29T09:15:15.987Z,1.88
2022-09-29T09:18:09.637Z,2.88
2022-09-29T09:20:44.700Z,1.98
2022-09-29T09:23:33.980Z,2.05
2022-09-29T09:26:04.511Z,2.20
2022-09-29T09:28:40.627Z,1.73
2022-09-29T09:31:22.872Z,2.35
2022-09-29T09:34:05.178Z,2.07
2022-09-29T09:39:05.702Z,1.48
2022-09-29T09:41:37.056Z,1.40
2022-09-29T09:44:14.119Z,1.60
2022-09-29T09:46:48.290Z,1.63
2022-09-29T09:49:24.880Z,1.75
2022-09-29T09:55:10.818Z,1.95
2022-09-29T09:57:56.640Z,2.05
2022-09-29T10:00:33.687Z,2.22
2022-09-29T10:03:10.232Z,2.20
2022-09-29T10:05:45.869Z,1.95
2022-09-29T10:08:39.587Z,1.77
2022-09-29T10:11:23.962Z,1.67
2022-09-29T10:13:58.786Z,1.60
2022-09-29T10:16:33.707Z,1.80
2022-09-29T10:19:00.767Z,1.77
2022-09-29T10:21:38.477Z,1.17
2022-09-29T10:24:09.711Z,1.02
2022-09-29T10:26:44.958Z,0.75
2022-09-29T10:29:32.784Z,0.60
2022-09-29T10:32:22.004Z,0.95
2022-09-29T10:35:06.676Z,0.73
2022-09-29T10:37:43.101Z,0.65
2022-09-29T10:40:10.878Z,0.60
2022-09-29T10:42:43.576Z,0.40
2022-09-29T10:45:18.957Z,0.50
2022-09-29T10:48:10.444Z,1.30
2022-09-29T10:53:45.778Z,0.32
2022-09-29T10:56:28.014Z,0.43
2022-09-29T10:59:03.234Z,0.50
2022-09-29T11:01:34.598Z,0.60
2022-09-29T11:04:14.434Z,0.75
2022-09-29T11:06:44.201Z,0.60
2022-09-29T11:09:16.844Z,0.50
2022-09-29T11:12:00.276Z,0.45
2022-09-29T11:14:38.502Z,0.40
2022-09-29T11:17:25.094Z,0.40
2022-09-29T11:19:53.834Z,0.40
2022-09-29T11:22:58.105Z,0.40
2022-09-29T11:25:40.183Z,0.65
2022-09-29T11:28:43.179Z,0.50
2022-09-29T11:31:15.845Z,0.50
2022-09-29T11:33:58.001Z,0.50
2022-09-29T11:36:44.887Z,0.83
2022-09-29T11:39:19.502Z,0.40
2022-09-29T11:42:14.991Z,0.60
2022-09-29T11:44:58.416Z,0.40
2022-09-29T11:47:34.058Z,0.40
2022-09-29T11:50:12.637Z,0.55
2022-09-29T11:52:47.802Z,0.43
2022-09-29T11:55:30.365Z,0.43
2022-09-29T11:58:24.966Z,0.45
2022-09-29T12:01:26.913Z,0.75
2022-09-29T12:04:19.597Z,0.40
2022-09-29T12:06:59.325Z,0.35
2022-09-29T12:10:01.210Z,0.82
2022-09-29T12:12:42.924Z,0.55
2022-09-29T12:15:40.184Z,0.60
2022-09-29T12:18:35.190Z,1.30
2022-09-29T12:21:04.009Z,0.70
2022-09-29T12:23:46.160Z,0.60
2022-09-29T12:26:21.464Z,0.50
2022-09-29T12:29:45.034Z,0.50
2022-09-29T12:32:21.962Z,0.70
2022-09-29T12:35:12.569Z,0.65
2022-09-29T12:37:46.748Z,0.60
2022-09-29T12:41:01.855Z,0.77
2022-09-29T12:43:46.965Z,0.50
2022-09-29T12:46:25.336Z,0.60
2022-09-29T12:49:14.018Z,0.60
2022-09-29T12:51:49.808Z,0.80
2022-09-29T12:54:31.638Z,0.57
2022-09-29T12:57:05.758Z,0.55
2022-09-29T12:59:41.311Z,0.50
2022-09-29T13:02:23.496Z,0.60
2022-09-29T13:05:13.630Z,0.60
2022-09-29T13:08:18.458Z,0.60
2022-09-29T13:11:07.014Z,0.68
2022-09-29T13:14:05.445Z,0.40
2022-09-29T13:17:09.819Z,0.43
2022-09-29T13:20:11.772Z,0.50
2022-09-29T13:22:53.726Z,0.50
2022-09-29T13:25:41.674Z,0.40
2022-09-29T13:28:23.533Z,0.40
2022-09-29T13:30:51.286Z,0.40
2022-09-29T13:33:26.004Z,0.30
2022-09-29T13:35:53.974Z,0.40
2022-09-29T13:38:24.699Z,0.40
2022-09-29T13:41:09.670Z,0.47
2022-09-29T13:43:51.830Z,0.50
2022-09-29T13:46:30.913Z,0.60
2022-09-29T13:49:13.205Z,0.40
2022-09-29T13:52:00.982Z,0.47
2022-09-29T13:54:34.529Z,0.30
2022-09-29T13:57:05.374Z,0.30
2022-09-29T13:59:32.897Z,0.30
2022-09-29T14:02:00.519Z,0.30
2022-09-29T14:04:43.888Z,0.50
2022-09-29T14:07:49.937Z,0.30
2022-09-29T14:10:35.193Z,0.30
2022-09-29T14:13:20.741Z,0.30
2022-09-29T14:15:55.557Z,0.40
2022-09-29T14:18:28.249Z,0.40
2022-09-29T14:21:04.288Z,0.43
2022-09-29T14:23:46.680Z,0.40
2022-09-29T14:26:49.394Z,0.50
2022-09-29T14:29:24.835Z,0.50
2022-09-29T14:32:02.458Z,0.40
2022-09-29T14:34:33.327Z,0.30
2022-09-29T14:37:01.295Z,0.28
2022-09-29T14:39:29.883Z,0.25
2022-09-29T14:41:56.889Z,0.20
2022-09-29T14:44:28.089Z,0.30
2022-09-29T14:47:13.365Z,0.30
2022-09-29T14:50:16.815Z,0.40
2022-09-29T14:56:14.664Z,0.40
2022-09-29T14:58:50.546Z,0.35
2022-09-29T15:01:28.512Z,0.65
2022-09-29T15:03:58.631Z,0.40
2022-09-29T15:06:29.406Z,0.40
2022-09-29T15:09:24.873Z,0.77
2022-09-29T15:11:55.532Z,0.40
2022-09-29T15:14:35.994Z,0.30
2022-09-29T15:17:43.528Z,0.43
2022-09-29T15:20:30.424Z,0.30
2022-09-29T15:23:06.188Z,0.40
2022-09-29T15:25:37.602Z,0.45
2022-09-29T15:28:12.509Z,0.40
2022-09-29T15:30:40.049Z,3.70
2022-09-29T15:33:24.185Z,0.93
2022-09-29T15:35:53.924Z,0.38
2022-09-29T15:38:23.729Z,0.40
2022-09-29T15:41:02.886Z,0.65
2022-09-29T15:43:51.928Z,0.47
2022-09-29T15:46:37.326Z,0.40
2022-09-29T15:49:04.090Z,0.52
2022-09-29T15:51:32.198Z,0.50
2022-09-29T15:54:03.738Z,0.50
2022-09-29T15:56:32.148Z,0.60
2022-09-29T15:58:59.489Z,0.70
2022-09-29T16:01:26.423Z,0.40
2022-09-29T16:04:02.953Z,0.50
2022-09-29T16:06:39.954Z,0.40
2022-09-29T16:09:18.461Z,0.50
2022-09-29T16:11:45.673Z,0.40
2022-09-29T16:14:27.623Z,0.40
2022-09-29T16:16:57.132Z,0.52
2022-09-29T16:19:27.909Z,0.30
2022-09-29T16:21:58.321Z,0.50
2022-09-29T16:24:30.318Z,0.30
2022-09-29T16:26:59.233Z,0.43
2022-09-29T16:29:34.052Z,0.30
2022-09-29T16:32:41.317Z,0.30
2022-09-29T16:35:48.943Z,0.52
2022-09-29T16:38:39.096Z,0.47
2022-09-29T16:41:19.572Z,0.30
2022-09-29T16:43:47.976Z,0.40
2022-09-29T16:46:20.913Z,0.40
2022-09-29T16:48:49.871Z,0.40
2022-09-29T16:51:39.189Z,0.60
2022-09-29T16:54:06.666Z,0.55
2022-09-29T16:56:35.651Z,0.40
2022-09-29T16:59:08.958Z,0.30
2022-09-29T17:01:35.887Z,0.38
2022-09-29T17:04:02.690Z,0.60
2022-09-29T17:06:31.183Z,0.30
2022-09-29T17:08:59.544Z,0.40
2022-09-29T17:11:29.652Z,0.60
2022-09-29T17:13:59.140Z,0.50
2022-09-29T17:16:28.738Z,0.30
2022-09-29T17:18:57.874Z,0.40
2022-09-29T17:21:24.967Z,0.50
2022-09-29T17:23:51.761Z,0.50
2022-09-29T17:26:42.959Z,0.47
2022-09-29T17:29:09.799Z,0.70
2022-09-29T17:31:36.673Z,0.40
2022-09-29T17:34:08.053Z,0.40
2022-09-29T17:36:37.056Z,0.50
2022-09-29T17:39:04.165Z,0.50
2022-09-29T17:41:33.305Z,0.30
2022-09-29T17:44:00.299Z,0.50
2022-09-29T17:46:27.300Z,0.43
2022-09-29T17:48:54.316Z,0.50
2022-09-29T17:51:21.141Z,0.60
2022-09-29T17:53:48.171Z,0.50
2022-09-29T17:56:26.066Z,0.47
2022-09-29T17:58:54.056Z,0.60
2022-09-29T18:01:23.417Z,0.60
2022-09-29T18:03:52.062Z,0.60
2022-09-29T18:06:22.524Z,0.85
2022-09-29T18:08:53.849Z,0.70
2022-09-29T18:11:23.014Z,0.60
2022-09-29T18:13:49.753Z,0.50
2022-09-29T18:16:19.981Z,0.52
2022-09-29T18:18:47.097Z,0.50
2022-09-29T18:21:14.550Z,0.47
2022-09-29T18:23:42.394Z,0.50
2022-09-29T18:26:12.336Z,0.70
2022-09-29T18:28:39.245Z,0.68
2022-09-29T18:31:11.690Z,0.93
2022-09-29T18:33:41.921Z,0.77
2022-09-29T18:36:11.614Z,1.15
2022-09-29T18:38:38.415Z,1.00
2022-09-29T18:41:09.853Z,1.17
2022-09-29T18:43:50.456Z,1.35
2022-09-29T18:46:31.261Z,1.67
2022-09-29T18:48:58.054Z,2.15
2022-09-29T18:51:26.000Z,1.20
2022-09-29T18:53:53.098Z,1.85
2022-09-29T18:56:19.923Z,2.20
2022-09-29T18:58:46.735Z,2.05
2022-09-29T19:01:18.637Z,2.13
2022-09-29T19:03:49.001Z,2.10
2022-09-29T19:06:16.296Z,2.08
2022-09-29T19:08:46.809Z,2.28
2022-09-29T19:11:19.211Z,1.77
2022-09-29T19:13:46.821Z,2.08
2022-09-29T19:16:13.587Z,2.10
2022-09-29T19:18:52.071Z,2.83
2022-09-29T19:21:18.876Z,2.50
2022-09-29T19:23:48.917Z,2.83
2022-09-29T19:26:21.439Z,2.28
2022-09-29T19:28:48.400Z,2.60
2022-09-29T19:31:19.547Z,2.67
2022-09-29T19:33:47.311Z,2.40
2022-09-29T19:36:18.650Z,2.63
2022-09-29T19:38:45.678Z,2.78
2022-09-29T19:41:22.236Z,2.88
2022-09-29T19:43:50.333Z,2.60
2022-09-29T19:46:19.473Z,3.40
2022-09-29T19:48:47.089Z,3.70
2022-09-29T19:51:40.674Z,3.92
2022-09-29T19:54:11.685Z,3.58
2022-09-29T19:56:44.193Z,3.33
2022-09-29T19:59:14.179Z,2.70
2022-09-29T20:01:42.467Z,2.97
2022-09-29T20:04:09.351Z,3.20
2022-09-29T20:06:36.294Z,2.97
2022-09-29T20:09:05.606Z,2.80
2022-09-29T20:11:33.953Z,2.25
2022-09-29T20:14:03.451Z,3.17
2022-09-29T20:16:36.766Z,2.75
2022-09-29T20:19:05.790Z,3.08
2022-09-29T20:21:34.026Z,2.80
2022-09-29T20:24:01.626Z,2.88
2022-09-29T20:26:29.069Z,3.13
2022-09-29T20:28:55.807Z,3.92
2022-09-29T20:31:23.667Z,2.90
2022-09-29T20:33:52.755Z,2.60
2022-09-29T20:36:19.709Z,3.25
2022-09-29T20:38:51.080Z,2.70
2022-09-29T20:41:18.335Z,3.83
2022-09-29T20:43:49.231Z,3.00
2022-09-29T20:46:16.168Z,3.00
2022-09-29T20:48:44.265Z,2.63
2022-09-29T20:51:17.439Z,2.85
2022-09-29T20:53:52.906Z,2.70
2022-09-29T20:56:20.273Z,2.40
2022-09-29T20:58:51.138Z,3.25
2022-09-29T21:01:21.773Z,2.47
2022-09-29T21:03:52.053Z,3.03
2022-09-29T21:06:20.692Z,3.00
2022-09-29T21:08:47.538Z,3.20
2022-09-29T21:11:14.439Z,3.65
2022-09-29T21:13:47.305Z,2.30
2022-09-29T21:18:40.968Z,4.30
2022-09-29T21:21:11.071Z,3.25
2022-09-29T21:23:40.553Z,3.38
2022-09-29T21:26:14.367Z,3.67
2022-09-29T21:28:44.280Z,3.00
2022-09-29T21:31:13.588Z,3.40
2022-09-29T21:33:43.157Z,3.58
2022-09-29T21:36:16.548Z,3.70
2022-09-29T21:38:45.638Z,3.35
2022-09-29T21:41:17.609Z,4.05
2022-09-29T21:43:45.860Z,4.10
2022-09-29T21:46:16.108Z,4.15
2022-09-29T21:48:43.554Z,4.15
2022-09-29T21:51:15.703Z,3.90
2022-09-29T21:53:43.542Z,4.20
2022-09-29T21:56:13.807Z,3.85
2022-09-29T21:58:40.942Z,4.05
2022-09-29T22:01:11.572Z,4.20
2022-09-29T22:03:43.384Z,3.70
2022-09-29T22:06:24.114Z,3.72
2022-09-29T22:08:51.702Z,6.68
2022-09-29T22:11:21.361Z,3.83
2022-09-29T22:13:52.867Z,4.03
2022-09-29T22:16:25.671Z,3.53
2022-09-29T22:21:40.720Z,2.92
2022-09-29T22:24:07.745Z,4.10
2022-09-29T22:26:34.736Z,3.13
2022-09-29T22:29:01.985Z,3.40
2022-09-29T22:31:31.093Z,3.55
2022-09-29T22:34:01.598Z,3.42
2022-09-29T22:36:30.751Z,4.05
2022-09-29T22:38:57.834Z,3.10
2022-09-29T22:41:24.704Z,3.28
2022-09-29T22:43:56.442Z,3.63
2022-09-29T22:46:24.845Z,4.18
2022-09-29T22:48:52.064Z,3.65
2022-09-29T22:51:20.924Z,3.53
2022-09-29T22:53:47.708Z,3.20
2022-09-29T22:56:20.440Z,3.35
2022-09-29T22:58:49.018Z,3.78
2022-09-29T23:01:18.107Z,5.15
2022-09-29T23:03:46.404Z,3.83
2022-09-29T23:06:14.098Z,4.05
2022-09-29T23:08:41.658Z,4.90
2022-09-29T23:11:08.928Z,7.18
2022-09-29T23:13:40.212Z,3.05
2022-09-29T23:16:12.575Z,3.75
2022-09-29T23:18:45.085Z,3.53
2022-09-29T23:21:20.008Z,3.35
2022-09-29T23:23:57.713Z,3.28
2022-09-29T23:26:25.108Z,3.40
2022-09-29T23:28:52.575Z,3.53
2022-09-29T23:31:19.539Z,2.67
2022-09-29T23:33:56.099Z,3.70
2022-09-29T23:36:25.259Z,4.35
2022-09-29T23:39:10.416Z,3.63
2022-09-29T23:41:39.962Z,3.40
2022-09-29T23:44:07.114Z,3.40
2022-09-29T23:46:36.504Z,3.85
2022-09-29T23:49:17.189Z,3.40
2022-09-29T23:51:50.186Z,3.42
2022-09-29T23:54:19.008Z,3.63
2022-09-29T23:56:47.184Z,4.70
2022-09-29T23:59:15.920Z,3.72
